首页
METAR-TAF:

METAR-TAF

机场 :

維也納新城, 奥地利

纬度: 47-50-36N, 经度: 016-15-29E, 海拔: 272米

当前天气观测

该预报发布于1小时和13分钟前的06:00 UTC
风速3节,风向南转南东
温度
气压
能見度: 0450

METAR: LOAN 150600Z 16003KT 0450 FG VV001

时间: 09:13 (07:13 UTC)

预报

该预报发布于1小时和13分钟前的06:00 UTC
预报有效从15日的 06点(UTC)到 15日的 15点(UTC)
风速3节,风向南转南东
能見度: 0500
层高于100英尺
成为
从 15日的 07点(UTC)到 15日的 09点(UTC)
风速10节,风向
能見度: 2000
散云层高于200英尺
轻雾
成为
从 15日的 09点(UTC)到 15日的 11点(UTC)
能见度10公里或以上
散云层高于30000英尺
短暂存在
从 15日的 11点(UTC)到 15日的 15点(UTC)
风速15节,风向,有时为25节阵风

TAF: LOAN 150600Z 1506/1515 16003KT 0500 FG VV001 BECMG 1507/1509 18010KT 2000 BR SCT002 BECMG 1509/1511 9999 SCT300 TEMPO 1511/1515 18015G25KT

超过4000个机场的气象观测和天气预报(METAR&TAF报告)。

可查询的气象台以黄色和红色小点在地图上表示。

将鼠标移到小点上方,可查看气象台名称。

然后点击查看天气观测和预报。

如需切换地图:点击带黑十字的绿色按钮放大地图;点击带横线的绿色按钮缩小地图;或者点击绿色箭头查看邻近地区的地图。


METAR-TAF: